createdAt,value
2022-11-29T00:01:38.862Z,100161.38
2022-11-29T00:04:06.437Z,100161.91
2022-11-29T00:06:34.982Z,100168.63
2022-11-29T00:09:09.596Z,100178.59
2022-11-29T00:11:56.631Z,100170.16
2022-11-29T00:14:25.140Z,100164.66
2022-11-29T00:16:55.766Z,100164.91
2022-11-29T00:19:23.483Z,100167.47
2022-11-29T00:21:50.732Z,100166.59
2022-11-29T00:24:18.420Z,100162.78
2022-11-29T00:26:45.684Z,100175.25
2022-11-29T00:31:59.230Z,100166.88
2022-11-29T00:34:26.654Z,100158.72
2022-11-29T00:36:53.764Z,100162.66
2022-11-29T00:48:54.155Z,100160.66
2022-11-29T00:51:21.761Z,100159.16
2022-11-29T00:53:49.075Z,100152.59
2022-11-29T00:56:16.625Z,100152.97
2022-11-29T00:58:45.139Z,100161.38
2022-11-29T01:01:12.949Z,100160.13
2022-11-29T01:03:40.473Z,100144.22
2022-11-29T01:06:12.547Z,100169.75
2022-11-29T01:08:40.228Z,100167.63
2022-11-29T01:11:22.782Z,100164.38
2022-11-29T01:13:53.568Z,100157.63
2022-11-29T01:16:21.569Z,100157.50
2022-11-29T01:18:51.917Z,100145.56
2022-11-29T01:21:22.309Z,100164.50
2022-11-29T01:23:53.854Z,100128.44
2022-11-29T01:26:25.908Z,100148.69
2022-11-29T01:28:55.523Z,100154.97
2022-11-29T01:31:24.625Z,100151.59
2022-11-29T01:34:01.401Z,100124.59
2022-11-29T01:36:31.402Z,100153.03
2022-11-29T01:39:02.789Z,100148.22
2022-11-29T01:41:32.720Z,100136.75
2022-11-29T01:44:05.316Z,100145.41
2022-11-29T01:46:35.607Z,100139.22
2022-11-29T01:49:11.985Z,100142.16
2022-11-29T01:51:42.501Z,100136.00
2022-11-29T01:54:11.168Z,100146.53
2022-11-29T01:56:39.271Z,100133.34
2022-11-29T01:59:11.475Z,100130.56
2022-11-29T02:01:39.038Z,100125.78
2022-11-29T02:04:06.999Z,100136.16
2022-11-29T02:06:36.258Z,100130.56
2022-11-29T02:09:04.010Z,100109.81
2022-11-29T02:12:09.949Z,100123.28
2022-11-29T02:14:43.478Z,100120.88
2022-11-29T02:17:16.880Z,100122.06
2022-11-29T02:20:07.880Z,100118.66
2022-11-29T02:22:43.421Z,100135.63
2022-11-29T02:25:49.002Z,100130.03
2022-11-29T02:28:50.019Z,100130.03
2022-11-29T02:31:58.638Z,100127.25
2022-11-29T02:35:03.648Z,100119.06
2022-11-29T02:37:49.534Z,100130.03
2022-11-29T02:40:26.152Z,100118.28
2022-11-29T02:43:32.298Z,100115.38
2022-11-29T02:46:24.718Z,100124.91
2022-11-29T02:49:15.496Z,100116.19
2022-11-29T02:51:55.713Z,100119.94
2022-11-29T02:54:44.968Z,100116.63
2022-11-29T02:57:30.830Z,100115.34
2022-11-29T03:00:18.525Z,100112.97
2022-11-29T03:02:52.449Z,100116.91
2022-11-29T03:05:44.879Z,100094.88
2022-11-29T03:08:31.216Z,100112.41
2022-11-29T03:11:32.522Z,100111.88
2022-11-29T03:14:33.971Z,100097.69
2022-11-29T03:17:09.170Z,100107.41
2022-11-29T03:20:00.270Z,100106.69
2022-11-29T03:22:49.205Z,100106.38
2022-11-29T03:25:32.558Z,100112.69
2022-11-29T03:28:08.523Z,100114.38
2022-11-29T03:30:41.001Z,100116.75
2022-11-29T03:33:46.564Z,100120.97
2022-11-29T03:36:29.423Z,100121.16
2022-11-29T03:39:03.047Z,100122.13
2022-11-29T03:41:57.561Z,100119.88
2022-11-29T03:44:56.114Z,100119.59
2022-11-29T03:47:30.292Z,100118.31
2022-11-29T03:50:11.474Z,100116.34
2022-11-29T03:52:43.164Z,100112.03
2022-11-29T03:55:25.604Z,100117.34
2022-11-29T03:58:15.678Z,100119.44
2022-11-29T04:01:23.668Z,100122.22
2022-11-29T04:04:17.867Z,100114.25
2022-11-29T04:07:22.154Z,100127.94
2022-11-29T04:10:03.273Z,100123.19
2022-11-29T04:12:55.164Z,100127.41
2022-11-29T04:15:37.763Z,100133.19
2022-11-29T04:18:20.206Z,100126.75
2022-11-29T04:21:11.268Z,100129.25
2022-11-29T04:24:00.035Z,100141.03
2022-11-29T04:26:49.260Z,100136.44
2022-11-29T04:29:29.954Z,100136.34
2022-11-29T04:32:22.714Z,100134.91
2022-11-29T04:35:20.921Z,100137.84
2022-11-29T04:38:03.444Z,100136.84
2022-11-29T04:41:09.560Z,100132.94
2022-11-29T04:43:43.316Z,100127.91
2022-11-29T04:47:07.837Z,100137.59
2022-11-29T04:49:51.947Z,100135.88
2022-11-29T04:52:25.229Z,100131.94
2022-11-29T04:55:05.911Z,100143.88
2022-11-29T04:58:01.716Z,100144.16
2022-11-29T05:00:39.601Z,100145.56
2022-11-29T05:03:16.828Z,100155.78
2022-11-29T05:05:52.734Z,100146.81
2022-11-29T05:08:41.746Z,100150.09
2022-11-29T05:11:33.589Z,100157.22
2022-11-29T05:14:34.832Z,100162.41
2022-11-29T05:17:26.622Z,100147.00
2022-11-29T05:20:31.479Z,100155.44
2022-11-29T05:23:18.317Z,100155.44
2022-11-29T05:26:16.676Z,100162.69
2022-11-29T05:29:02.910Z,100150.34
2022-11-29T05:31:39.770Z,100155.16
2022-11-29T05:34:35.133Z,100153.88
2022-11-29T05:37:25.945Z,100156.84
2022-11-29T05:39:53.560Z,100167.88
2022-11-29T05:42:46.019Z,100171.66
2022-11-29T05:45:30.636Z,100153.69
2022-11-29T05:48:05.503Z,100166.00
2022-11-29T05:51:16.666Z,100169.81
2022-11-29T05:54:14.421Z,100180.34
2022-11-29T05:57:03.230Z,100182.41
2022-11-29T05:59:31.515Z,100173.19
2022-11-29T06:02:05.519Z,100164.59
2022-11-29T06:04:46.209Z,100179.47
2022-11-29T06:07:27.393Z,100176.81
2022-11-29T06:10:11.177Z,100167.16
2022-11-29T06:12:39.629Z,100181.47
2022-11-29T06:15:34.881Z,100184.19
2022-11-29T06:18:19.353Z,100172.81
2022-11-29T06:21:12.670Z,100184.63
2022-11-29T06:23:59.499Z,100195.06
2022-11-29T06:27:04.979Z,100188.06
2022-11-29T06:29:50.961Z,100195.94
2022-11-29T06:32:44.924Z,100185.84
2022-11-29T06:35:36.073Z,100191.78
2022-11-29T06:38:28.549Z,100192.63
2022-11-29T06:41:01.789Z,100194.16
2022-11-29T06:43:31.698Z,100192.06
2022-11-29T06:46:13.023Z,100205.56
2022-11-29T06:48:55.428Z,100209.06
2022-11-29T06:51:49.298Z,100201.41
2022-11-29T06:54:29.157Z,100206.09
2022-11-29T06:56:59.480Z,100218.13
2022-11-29T06:59:40.223Z,100204.47
2022-11-29T07:02:28.713Z,100218.28
2022-11-29T07:05:05.324Z,100216.97
2022-11-29T07:07:35.246Z,100215.78
2022-11-29T07:10:04.928Z,100216.06
2022-11-29T07:12:32.728Z,100215.94
2022-11-29T07:15:00.213Z,100224.00
2022-11-29T07:17:37.767Z,100207.34
2022-11-29T07:20:23.732Z,100219.09
2022-11-29T07:23:14.689Z,100208.41
2022-11-29T07:26:00.831Z,100209.84
2022-11-29T07:28:35.411Z,100212.41
2022-11-29T07:31:16.871Z,100201.28
2022-11-29T07:33:59.199Z,100198.56
2022-11-29T07:36:33.963Z,100204.31
2022-11-29T07:39:10.486Z,100206.47
2022-11-29T07:41:56.087Z,100199.72
2022-11-29T07:44:30.492Z,100207.03
2022-11-29T07:46:57.886Z,100193.59
2022-11-29T07:49:25.502Z,100180.75
2022-11-29T07:51:54.935Z,100193.09
2022-11-29T07:54:24.032Z,100187.84
2022-11-29T07:56:51.423Z,100189.38
2022-11-29T07:59:19.120Z,100188.50
2022-11-29T08:01:46.763Z,100184.25
2022-11-29T08:04:14.657Z,100195.97
2022-11-29T08:06:42.655Z,100184.28
2022-11-29T08:09:10.353Z,100204.66
2022-11-29T08:11:37.677Z,100195.63
2022-11-29T08:14:05.596Z,100199.63
2022-11-29T08:16:33.368Z,100196.00
2022-11-29T08:19:01.007Z,100193.81
2022-11-29T08:21:28.727Z,100196.31
2022-11-29T08:23:57.024Z,100197.50
2022-11-29T08:26:28.275Z,100195.28
2022-11-29T08:28:58.674Z,100202.94
2022-11-29T08:31:26.081Z,100206.34
2022-11-29T08:33:53.772Z,100187.72
2022-11-29T08:36:21.323Z,100204.38
2022-11-29T08:38:49.389Z,100190.72
2022-11-29T08:41:17.882Z,100203.66
2022-11-29T08:43:46.007Z,100214.19
2022-11-29T08:46:18.192Z,100226.44
2022-11-29T08:48:48.028Z,100231.00
2022-11-29T08:51:15.726Z,100213.94
2022-11-29T08:53:43.522Z,100213.81
2022-11-29T08:56:53.381Z,100209.25
2022-11-29T08:59:01.973Z,100219.78
2022-11-29T09:01:29.662Z,100202.28
2022-11-29T09:04:00.414Z,100219.50
2022-11-29T09:06:31.079Z,100219.31
2022-11-29T09:08:59.684Z,100226.88
2022-11-29T09:11:28.652Z,100226.69
2022-11-29T09:13:59.475Z,100214.22
2022-11-29T09:16:32.334Z,100216.22
2022-11-29T09:19:00.777Z,100192.94
2022-11-29T09:21:31.178Z,100202.63
2022-11-29T09:24:24.124Z,100234.44
2022-11-29T09:26:51.762Z,100213.56
2022-11-29T09:29:19.468Z,100224.34
2022-11-29T09:31:46.901Z,100209.88
2022-11-29T09:34:15.760Z,100190.78
2022-11-29T09:36:44.779Z,100204.13
2022-11-29T09:39:17.312Z,100189.25
2022-11-29T09:42:09.930Z,100187.66
2022-11-29T09:45:01.998Z,100198.84
2022-11-29T09:47:58.001Z,100193.28
2022-11-29T09:50:35.255Z,100200.25
2022-11-29T09:53:19.641Z,100193.06
2022-11-29T09:56:05.834Z,100190.38
2022-11-29T09:58:45.927Z,100192.03
2022-11-29T10:01:27.211Z,100181.66
2022-11-29T10:04:05.831Z,100169.41
2022-11-29T10:06:42.058Z,100168.88
2022-11-29T10:09:19.325Z,100148.03
2022-11-29T10:12:44.511Z,100164.66
2022-11-29T10:15:17.082Z,100168.16
2022-11-29T10:18:00.245Z,100168.25
2022-11-29T10:20:37.876Z,100168.25
2022-11-29T10:23:58.893Z,100165.72
2022-11-29T10:26:32.037Z,100168.72
2022-11-29T10:29:03.245Z,100172.09
2022-11-29T10:31:43.063Z,100175.81
2022-11-29T10:34:15.429Z,100170.06
2022-11-29T10:36:48.561Z,100179.47
2022-11-29T10:39:37.401Z,100182.53
2022-11-29T10:42:26.222Z,100163.09
2022-11-29T10:44:53.849Z,100156.78
2022-11-29T10:47:21.157Z,100167.66
2022-11-29T10:49:48.650Z,100151.63
2022-11-29T10:52:21.710Z,100164.88
2022-11-29T10:54:52.221Z,100152.03
2022-11-29T10:57:22.999Z,100142.28
2022-11-29T11:00:02.377Z,100135.16
2022-11-29T11:02:34.877Z,100142.16
2022-11-29T11:05:12.087Z,100145.19
2022-11-29T11:07:39.717Z,100126.81
2022-11-29T11:10:37.324Z,100134.88
2022-11-29T11:13:20.345Z,100122.47
2022-11-29T11:15:47.963Z,100145.41
2022-11-29T11:18:25.734Z,100130.75
2022-11-29T11:20:57.442Z,100128.16
2022-11-29T11:23:29.141Z,100120.53
2022-11-29T11:26:00.845Z,100135.16
2022-11-29T11:28:37.130Z,100127.38
2022-11-29T11:31:08.527Z,100131.34
2022-11-29T11:33:44.304Z,100127.53
2022-11-29T11:36:23.294Z,100111.06
2022-11-29T11:38:55.842Z,100103.91
2022-11-29T11:41:45.257Z,100125.91
2022-11-29T11:47:22.284Z,100129.59
2022-11-29T11:50:06.840Z,100095.88
2022-11-29T11:52:44.878Z,100120.28
2022-11-29T11:55:22.156Z,100119.19
2022-11-29T11:58:16.293Z,100112.03
2022-11-29T12:01:06.564Z,100123.25
2022-11-29T12:03:43.602Z,100119.69
2022-11-29T12:06:39.748Z,100124.22
2022-11-29T12:09:22.523Z,100117.91
2022-11-29T12:12:15.653Z,100119.00
2022-11-29T12:15:01.499Z,100110.94
2022-11-29T12:17:47.293Z,100115.34
2022-11-29T12:20:26.574Z,100110.63
2022-11-29T12:22:54.003Z,100110.63
2022-11-29T12:25:26.451Z,100111.16
2022-11-29T12:27:53.962Z,100110.94
2022-11-29T12:30:21.589Z,100094.22
2022-11-29T12:33:23.559Z,100100.28
2022-11-29T12:36:15.208Z,100114.69
2022-11-29T12:38:54.526Z,100097.75
2022-11-29T12:41:25.126Z,100088.69
2022-11-29T12:44:24.547Z,100108.63
2022-11-29T12:47:35.130Z,100106.28
2022-11-29T12:50:05.157Z,100117.97
2022-11-29T12:52:47.656Z,100098.78
2022-11-29T12:55:26.455Z,100097.50
2022-11-29T12:58:22.752Z,100121.69
2022-11-29T13:01:15.863Z,100092.81
2022-11-29T13:04:05.948Z,100101.06
2022-11-29T13:07:11.068Z,100107.59
2022-11-29T13:09:47.903Z,100107.09
2022-11-29T13:12:39.691Z,100098.50
2022-11-29T13:15:21.721Z,100113.00
2022-11-29T13:18:12.532Z,100100.47
2022-11-29T13:20:52.416Z,100095.31
2022-11-29T13:24:00.358Z,100107.00
2022-11-29T13:26:23.027Z,100110.84
2022-11-29T13:28:50.989Z,100105.09
2022-11-29T13:31:23.447Z,100111.03
2022-11-29T13:33:57.616Z,100118.25
2022-11-29T13:36:29.746Z,100115.53
2022-11-29T13:39:07.984Z,100111.00
2022-11-29T13:41:46.650Z,100112.94
2022-11-29T13:44:32.706Z,100108.84
2022-11-29T13:47:10.949Z,100120.13
2022-11-29T13:50:02.627Z,100121.47
2022-11-29T13:52:44.938Z,100128.88
2022-11-29T13:55:12.195Z,100124.63
2022-11-29T14:00:51.958Z,100122.91
2022-11-29T14:03:28.602Z,100128.59
2022-11-29T14:06:01.982Z,100129.47
2022-11-29T14:09:02.479Z,100131.91
2022-11-29T14:11:43.352Z,100131.53
2022-11-29T14:14:14.041Z,100138.34
2022-11-29T14:16:44.267Z,100143.41
2022-11-29T14:19:12.186Z,100144.09
2022-11-29T14:21:58.970Z,100149.97
2022-11-29T14:24:33.000Z,100134.97
2022-11-29T14:27:06.373Z,100134.38
2022-11-29T14:29:55.678Z,100136.03
2022-11-29T14:32:46.545Z,100158.13
2022-11-29T14:35:26.987Z,100150.91
2022-11-29T14:38:31.221Z,100167.22
2022-11-29T14:41:14.167Z,100163.94
2022-11-29T14:43:42.107Z,100171.94
2022-11-29T14:46:15.903Z,100164.19
2022-11-29T14:48:55.356Z,100158.22
2022-11-29T14:51:35.011Z,100159.41
2022-11-29T14:54:12.337Z,100169.91
2022-11-29T14:56:42.796Z,100161.94
2022-11-29T14:59:58.295Z,100159.63
2022-11-29T15:02:41.625Z,100163.53
2022-11-29T15:05:19.050Z,100135.69
2022-11-29T15:08:08.552Z,100159.75
2022-11-29T15:10:48.315Z,100145.81
2022-11-29T15:13:27.897Z,100151.50
2022-11-29T15:16:15.487Z,100161.53
2022-11-29T15:19:13.365Z,100153.25
2022-11-29T15:21:49.687Z,100156.19
2022-11-29T15:24:19.089Z,100135.72
2022-11-29T15:27:02.389Z,100147.47
2022-11-29T15:29:31.810Z,100146.84
2022-11-29T15:32:01.651Z,100152.75
2022-11-29T15:34:35.122Z,100146.13
2022-11-29T15:37:02.852Z,100141.38
2022-11-29T15:39:37.234Z,100140.91
2022-11-29T15:42:14.971Z,100139.13
2022-11-29T15:44:47.222Z,100138.53
2022-11-29T15:47:23.855Z,100150.53
2022-11-29T15:49:56.617Z,100142.53
2022-11-29T15:52:38.234Z,100153.41
2022-11-29T15:55:11.775Z,100156.63
2022-11-29T15:57:44.817Z,100145.09
2022-11-29T16:00:21.744Z,100144.22
2022-11-29T16:02:51.598Z,100139.94
2022-11-29T16:05:31.400Z,100142.81
2022-11-29T16:08:21.306Z,100136.63
2022-11-29T16:10:53.125Z,100142.84
2022-11-29T16:13:32.931Z,100137.75
2022-11-29T16:16:22.201Z,100148.72
2022-11-29T16:18:50.772Z,100160.09
2022-11-29T16:21:32.228Z,100151.72
2022-11-29T16:24:11.789Z,100144.31
2022-11-29T16:26:43.234Z,100157.31
2022-11-29T16:29:45.229Z,100156.53
2022-11-29T16:32:33.896Z,100166.66
2022-11-29T16:35:26.229Z,100167.34
2022-11-29T16:37:54.015Z,100167.03
2022-11-29T16:40:28.968Z,100139.50
2022-11-29T16:43:03.367Z,100169.16
2022-11-29T16:45:36.433Z,100166.41
2022-11-29T16:48:26.927Z,100168.97
2022-11-29T16:51:15.312Z,100164.25
2022-11-29T16:53:47.800Z,100161.88
2022-11-29T16:56:17.430Z,100153.28
2022-11-29T16:59:25.740Z,100158.19
2022-11-29T17:01:52.722Z,100159.22
2022-11-29T17:04:23.808Z,100153.47
2022-11-29T17:06:53.892Z,100153.78
2022-11-29T17:09:33.227Z,100159.78
2022-11-29T17:12:02.477Z,100166.38
2022-11-29T17:14:31.257Z,100180.03
2022-11-29T17:17:02.023Z,100180.34
2022-11-29T17:19:30.382Z,100169.81
2022-11-29T17:21:57.764Z,100180.50
2022-11-29T17:24:25.686Z,100170.94
2022-11-29T17:26:53.900Z,100163.34
2022-11-29T17:29:21.505Z,100169.66
2022-11-29T17:31:50.676Z,100179.09
2022-11-29T17:34:18.547Z,100168.97
2022-11-29T17:36:46.031Z,100174.88
2022-11-29T17:39:15.678Z,100176.97
2022-11-29T17:41:43.225Z,100162.06
2022-11-29T17:44:11.025Z,100177.41
2022-11-29T17:46:38.817Z,100174.53
2022-11-29T17:49:09.365Z,100176.09
2022-11-29T17:51:51.749Z,100179.75
2022-11-29T17:54:21.073Z,100182.88
2022-11-29T17:56:48.564Z,100190.88
2022-11-29T17:59:16.534Z,100169.41
2022-11-29T18:01:47.306Z,100183.88
2022-11-29T18:04:15.352Z,100187.53
2022-11-29T18:06:44.028Z,100177.16
2022-11-29T18:09:13.181Z,100183.06
2022-11-29T18:11:48.655Z,100178.41
2022-11-29T18:14:20.679Z,100175.91
2022-11-29T18:16:48.144Z,100176.47
2022-11-29T18:19:19.593Z,100187.41
2022-11-29T18:21:47.769Z,100184.91
2022-11-29T18:24:34.532Z,100173.22
2022-11-29T18:27:01.894Z,100183.78
2022-11-29T18:29:32.773Z,100175.22
2022-11-29T18:32:05.107Z,100171.56
2022-11-29T18:34:32.752Z,100164.56
2022-11-29T18:36:59.976Z,100179.44
2022-11-29T18:39:30.567Z,100173.94
2022-11-29T18:41:57.865Z,100170.56
2022-11-29T18:44:29.468Z,100180.00
2022-11-29T18:46:57.529Z,100183.78
2022-11-29T18:49:25.163Z,100167.50
2022-11-29T18:51:52.562Z,100183.78
2022-11-29T18:54:20.871Z,100193.22
2022-11-29T18:56:50.857Z,100175.50
2022-11-29T18:59:18.548Z,100178.59
2022-11-29T19:01:48.248Z,100178.59
2022-11-29T19:04:19.501Z,100175.22
2022-11-29T19:06:47.543Z,100168.22
2022-11-29T19:09:24.354Z,100176.53
2022-11-29T19:11:51.904Z,100180.28
2022-11-29T19:14:20.232Z,100177.50
2022-11-29T19:16:49.442Z,100178.06
2022-11-29T19:19:19.041Z,100177.22
2022-11-29T19:21:46.614Z,100181.97
2022-11-29T19:24:18.760Z,100186.91
2022-11-29T19:26:49.613Z,100183.81
2022-11-29T19:29:17.747Z,100174.41
2022-11-29T19:31:45.560Z,100184.78
2022-11-29T19:34:13.825Z,100197.16
2022-11-29T19:36:43.745Z,100200.25
2022-11-29T19:39:14.689Z,100191.00
2022-11-29T19:41:47.813Z,100188.88
2022-11-29T19:44:15.497Z,100196.75
2022-11-29T19:46:48.898Z,100202.50
2022-11-29T19:49:18.274Z,100199.69
2022-11-29T19:51:45.759Z,100189.28
2022-11-29T19:54:14.079Z,100189.41
2022-11-29T19:56:41.738Z,100192.06
2022-11-29T19:59:09.492Z,100195.75
2022-11-29T20:01:41.468Z,100197.41
2022-11-29T20:04:12.444Z,100193.22
2022-11-29T20:06:40.392Z,100193.78
2022-11-29T20:09:08.310Z,100187.00
2022-11-29T20:11:36.981Z,100184.91
2022-11-29T20:14:08.145Z,100178.56
2022-11-29T20:16:38.121Z,100187.53
2022-11-29T20:19:13.989Z,100184.56
2022-11-29T20:21:45.253Z,100185.84
2022-11-29T20:24:14.598Z,100181.88
2022-11-29T20:26:44.650Z,100179.22
2022-11-29T20:29:13.388Z,100185.13
2022-11-29T20:31:47.600Z,100170.53
2022-11-29T20:34:38.443Z,100155.66
2022-11-29T20:37:23.323Z,100169.28
2022-11-29T20:40:01.670Z,100169.81
2022-11-29T20:43:12.046Z,100165.22
2022-11-29T20:45:40.264Z,100160.75
2022-11-29T20:48:17.160Z,100167.88
2022-11-29T20:50:53.895Z,100144.88
2022-11-29T20:53:32.172Z,100145.72
2022-11-29T20:56:00.317Z,100161.75
2022-11-29T20:58:28.122Z,100160.50
2022-11-29T21:00:56.479Z,100156.13
2022-11-29T21:03:24.551Z,100154.44
2022-11-29T21:05:53.432Z,100147.72
2022-11-29T21:08:22.254Z,100161.22
2022-11-29T21:10:50.762Z,100145.47
2022-11-29T21:13:20.838Z,100159.38
2022-11-29T21:15:48.961Z,100146.88
2022-11-29T21:18:27.847Z,100145.34
2022-11-29T21:21:07.760Z,100143.34
2022-11-29T21:23:45.386Z,100145.88
2022-11-29T21:26:26.949Z,100149.41
2022-11-29T21:29:07.637Z,100138.72
2022-11-29T21:31:35.844Z,100129.16
2022-11-29T21:34:03.753Z,100159.75
2022-11-29T21:36:31.697Z,100150.50
2022-11-29T21:39:03.566Z,100139.53
2022-11-29T21:41:35.054Z,100153.59
2022-11-29T21:44:07.398Z,100149.94
2022-11-29T21:46:36.346Z,100149.22
2022-11-29T21:49:04.694Z,100152.31
2022-11-29T21:51:32.283Z,100151.06
2022-11-29T21:53:59.593Z,100140.66
2022-11-29T21:56:27.126Z,100149.06
2022-11-29T21:58:54.527Z,100136.41
2022-11-29T22:01:22.686Z,100134.56
2022-11-29T22:03:54.759Z,100133.41
2022-11-29T22:06:25.017Z,100120.59
2022-11-29T22:08:53.573Z,100132.38
2022-11-29T22:11:34.315Z,100142.19
2022-11-29T22:14:14.158Z,100118.88
2022-11-29T22:17:00.436Z,100132.91
2022-11-29T22:19:33.679Z,100125.41
2022-11-29T22:22:04.266Z,100127.66
2022-11-29T22:24:34.658Z,100121.59
2022-11-29T22:27:02.954Z,100124.09
2022-11-29T22:29:31.168Z,100120.66
2022-11-29T22:31:59.632Z,100118.91
2022-11-29T22:34:28.186Z,100109.53
2022-11-29T22:36:56.131Z,100122.34
2022-11-29T22:39:24.388Z,100119.69
2022-11-29T22:41:54.698Z,100116.56
2022-11-29T22:44:24.073Z,100122.44
2022-11-29T22:46:52.090Z,100121.75
2022-11-29T22:49:19.613Z,100118.78
2022-11-29T22:51:47.645Z,100125.28
2022-11-29T22:54:16.582Z,100100.38
2022-11-29T22:56:45.179Z,100108.22
2022-11-29T22:59:12.869Z,100113.44
2022-11-29T23:01:41.991Z,100128.50
2022-11-29T23:04:12.194Z,100108.53
2022-11-29T23:06:44.913Z,100113.13
2022-11-29T23:09:22.734Z,100097.63
2022-11-29T23:11:54.275Z,100103.81
2022-11-29T23:14:24.280Z,100095.25
2022-11-29T23:16:52.600Z,100115.13
2022-11-29T23:19:27.123Z,100095.69
2022-11-29T23:21:56.556Z,100096.94
2022-11-29T23:24:24.014Z,100106.50
2022-11-29T23:26:51.590Z,100098.75
2022-11-29T23:29:19.955Z,100091.13
2022-11-29T23:31:49.479Z,100101.44
2022-11-29T23:34:17.827Z,100094.78
2022-11-29T23:36:49.793Z,100097.78
2022-11-29T23:39:20.944Z,100096.84
2022-11-29T23:41:48.535Z,100096.84
2022-11-29T23:44:17.952Z,100072.63
2022-11-29T23:46:45.455Z,100093.13
2022-11-29T23:49:12.776Z,100100.59
2022-11-29T23:51:40.461Z,100093.41
2022-11-29T23:54:08.042Z,100098.81
2022-11-29T23:56:35.739Z,100086.81
2022-11-29T23:59:04.271Z,100087.13
